sensor_id;sensor_type;location;lat;lon;timestamp;P1;P2;P0
82622;PMS5003;72291;55.002;-1.592;2024-02-26T00:01:16;25;25;
82622;PMS5003;72291;55.002;-1.592;2024-02-26T00:03:41;23;22;
82622;PMS5003;72291;55.002;-1.592;2024-02-26T00:06:07;27;25;
82622;PMS5003;72291;55.002;-1.592;2024-02-26T00:08:32;28;27;
82622;PMS5003;72291;55.002;-1.592;2024-02-26T00:10:57;23;22;
82622;PMS5003;72291;55.002;-1.592;2024-02-26T00:13:24;31;30;
82622;PMS5003;72291;55.002;-1.592;2024-02-26T00:15:48;30;29;
82622;PMS5003;72291;55.002;-1.592;2024-02-26T00:18:14;28;25;
82622;PMS5003;72291;55.002;-1.592;2024-02-26T00:20:39;29;28;
82622;PMS5003;72291;55.002;-1.592;2024-02-26T00:23:05;23;22;
82622;PMS5003;72291;55.002;-1.592;2024-02-26T00:25:31;27;25;
82622;PMS5003;72291;55.002;-1.592;2024-02-26T00:27:55;29;28;
82622;PMS5003;72291;55.002;-1.592;2024-02-26T00:30:20;33;30;
82622;PMS5003;72291;55.002;-1.592;2024-02-26T00:32:46;27;26;
82622;PMS5003;72291;55.002;-1.592;2024-02-26T00:35:11;29;28;
82622;PMS5003;72291;55.002;-1.592;2024-02-26T00:37:38;26;25;
82622;PMS5003;72291;55.002;-1.592;2024-02-26T00:40:03;29;29;
82622;PMS5003;72291;55.002;-1.592;2024-02-26T00:42:28;32;28;
82622;PMS5003;72291;55.002;-1.592;2024-02-26T00:44:54;32;28;
82622;PMS5003;72291;55.002;-1.592;2024-02-26T00:47:20;33;29;
82622;PMS5003;72291;55.002;-1.592;2024-02-26T00:49:45;25;23;
82622;PMS5003;72291;55.002;-1.592;2024-02-26T00:52:13;29;27;
82622;PMS5003;72291;55.002;-1.592;2024-02-26T00:54:38;31;29;
82622;PMS5003;72291;55.002;-1.592;2024-02-26T00:57:01;35;32;
82622;PMS5003;72291;55.002;-1.592;2024-02-26T00:59:27;25;24;
82622;PMS5003;72291;55.002;-1.592;2024-02-26T01:01:53;25;24;
82622;PMS5003;72291;55.002;-1.592;2024-02-26T01:04:20;26;25;
82622;PMS5003;72291;55.002;-1.592;2024-02-26T01:06:49;28;27;
82622;PMS5003;72291;55.002;-1.592;2024-02-26T01:09:09;20;19;
82622;PMS5003;72291;55.002;-1.592;2024-02-26T01:11:36;27;25;
82622;PMS5003;72291;55.002;-1.592;2024-02-26T01:13:59;26;23;
82622;PMS5003;72291;55.002;-1.592;2024-02-26T01:16:26;22;21;
82622;PMS5003;72291;55.002;-1.592;2024-02-26T01:18:52;26;23;
82622;PMS5003;72291;55.002;-1.592;2024-02-26T01:21:16;28;26;
82622;PMS5003;72291;55.002;-1.592;2024-02-26T01:23:42;28;23;
82622;PMS5003;72291;55.002;-1.592;2024-02-26T01:26:07;27;26;
82622;PMS5003;72291;55.002;-1.592;2024-02-26T01:28:32;20;20;
82622;PMS5003;72291;55.002;-1.592;2024-02-26T01:30:57;24;22;
82622;PMS5003;72291;55.002;-1.592;2024-02-26T01:33:23;18;18;
82622;PMS5003;72291;55.002;-1.592;2024-02-26T01:35:48;25;21;
82622;PMS5003;72291;55.002;-1.592;2024-02-26T01:38:15;20;19;
82622;PMS5003;72291;55.002;-1.592;2024-02-26T01:40:39;21;18;
82622;PMS5003;72291;55.002;-1.592;2024-02-26T01:43:04;20;19;
82622;PMS5003;72291;55.002;-1.592;2024-02-26T01:45:29;17;17;
82622;PMS5003;72291;55.002;-1.592;2024-02-26T01:47:55;20;19;
82622;PMS5003;72291;55.002;-1.592;2024-02-26T01:50:23;18;17;
82622;PMS5003;72291;55.002;-1.592;2024-02-26T01:52:46;18;16;
82622;PMS5003;72291;55.002;-1.592;2024-02-26T01:55:12;15;15;
82622;PMS5003;72291;55.002;-1.592;2024-02-26T01:57:37;14;13;
82622;PMS5003;72291;55.002;-1.592;2024-02-26T02:00:03;17;13;
82622;PMS5003;72291;55.002;-1.592;2024-02-26T02:02:29;13;13;
82622;PMS5003;72291;55.002;-1.592;2024-02-26T02:04:54;15;13;
82622;PMS5003;72291;55.002;-1.592;2024-02-26T02:07:19;13;11;
82622;PMS5003;72291;55.002;-1.592;2024-02-26T02:09:50;10;9;
82622;PMS5003;72291;55.002;-1.592;2024-02-26T02:12:10;14;12;
82622;PMS5003;72291;55.002;-1.592;2024-02-26T02:14:36;9;9;
82622;PMS5003;72291;55.002;-1.592;2024-02-26T02:17:01;10;8;
82622;PMS5003;72291;55.002;-1.592;2024-02-26T02:19:26;9;8;
82622;PMS5003;72291;55.002;-1.592;2024-02-26T02:21:51;10;10;
82622;PMS5003;72291;55.002;-1.592;2024-02-26T02:24:17;8;7;
82622;PMS5003;72291;55.002;-1.592;2024-02-26T02:26:42;10;9;
82622;PMS5003;72291;55.002;-1.592;2024-02-26T02:29:08;8;8;
82622;PMS5003;72291;55.002;-1.592;2024-02-26T02:31:33;9;8;
82622;PMS5003;72291;55.002;-1.592;2024-02-26T02:33:58;8;6;
82622;PMS5003;72291;55.002;-1.592;2024-02-26T02:36:23;8;7;
82622;PMS5003;72291;55.002;-1.592;2024-02-26T02:38:50;6;5;
82622;PMS5003;72291;55.002;-1.592;2024-02-26T02:41:13;5;5;
82622;PMS5003;72291;55.002;-1.592;2024-02-26T02:43:39;3;3;
82622;PMS5003;72291;55.002;-1.592;2024-02-26T02:46:04;5;4;
82622;PMS5003;72291;55.002;-1.592;2024-02-26T02:48:29;7;6;
82622;PMS5003;72291;55.002;-1.592;2024-02-26T02:50:55;4;4;
82622;PMS5003;72291;55.002;-1.592;2024-02-26T02:53:20;4;4;
82622;PMS5003;72291;55.002;-1.592;2024-02-26T02:55:45;5;3;
82622;PMS5003;72291;55.002;-1.592;2024-02-26T02:58:10;5;4;
82622;PMS5003;72291;55.002;-1.592;2024-02-26T03:00:36;5;4;
82622;PMS5003;72291;55.002;-1.592;2024-02-26T03:05:26;7;5;
82622;PMS5003;72291;55.002;-1.592;2024-02-26T03:07:51;5;5;
82622;PMS5003;72291;55.002;-1.592;2024-02-26T03:10:17;4;4;
82622;PMS5003;72291;55.002;-1.592;2024-02-26T03:12:42;3;3;
82622;PMS5003;72291;55.002;-1.592;2024-02-26T03:15:09;5;5;
82622;PMS5003;72291;55.002;-1.592;2024-02-26T03:17:33;6;5;
82622;PMS5003;72291;55.002;-1.592;2024-02-26T03:19:58;6;5;
82622;PMS5003;72291;55.002;-1.592;2024-02-26T03:22:24;9;9;
82622;PMS5003;72291;55.002;-1.592;2024-02-26T03:24:50;4;4;
82622;PMS5003;72291;55.002;-1.592;2024-02-26T03:27:16;4;3;
82622;PMS5003;72291;55.002;-1.592;2024-02-26T03:29:41;4;3;
82622;PMS5003;72291;55.002;-1.592;2024-02-26T03:32:06;3;3;
82622;PMS5003;72291;55.002;-1.592;2024-02-26T03:34:32;5;3;
82622;PMS5003;72291;55.002;-1.592;2024-02-26T03:41:47;4;3;
82622;PMS5003;72291;55.002;-1.592;2024-02-26T03:44:17;2;2;
82622;PMS5003;72291;55.002;-1.592;2024-02-26T03:46:37;3;2;
82622;PMS5003;72291;55.002;-1.592;2024-02-26T03:49:03;4;4;
82622;PMS5003;72291;55.002;-1.592;2024-02-26T03:51:28;4;3;
82622;PMS5003;72291;55.002;-1.592;2024-02-26T03:53:55;6;3;
82622;PMS5003;72291;55.002;-1.592;2024-02-26T03:56:18;3;2;
82622;PMS5003;72291;55.002;-1.592;2024-02-26T03:58:44;3;3;
82622;PMS5003;72291;55.002;-1.592;2024-02-26T04:01:09;5;4;
82622;PMS5003;72291;55.002;-1.592;2024-02-26T04:03:35;2;2;
82622;PMS5003;72291;55.002;-1.592;2024-02-26T04:06:01;2;2;
82622;PMS5003;72291;55.002;-1.592;2024-02-26T04:08:25;2;2;
82622;PMS5003;72291;55.002;-1.592;2024-02-26T04:10:50;6;3;
82622;PMS5003;72291;55.002;-1.592;2024-02-26T04:13:16;3;2;
82622;PMS5003;72291;55.002;-1.592;2024-02-26T04:15:41;3;2;
82622;PMS5003;72291;55.002;-1.592;2024-02-26T04:18:07;2;1;
82622;PMS5003;72291;55.002;-1.592;2024-02-26T04:22:57;4;3;
82622;PMS5003;72291;55.002;-1.592;2024-02-26T04:25:22;5;2;
82622;PMS5003;72291;55.002;-1.592;2024-02-26T04:27:47;2;2;
82622;PMS5003;72291;55.002;-1.592;2024-02-26T04:30:13;3;2;
82622;PMS5003;72291;55.002;-1.592;2024-02-26T04:32:37;3;1;
82622;PMS5003;72291;55.002;-1.592;2024-02-26T04:35:03;4;2;
82622;PMS5003;72291;55.002;-1.592;2024-02-26T04:37:28;2;1;
82622;PMS5003;72291;55.002;-1.592;2024-02-26T04:39:53;1;0;
82622;PMS5003;72291;55.002;-1.592;2024-02-26T04:42:18;0;0;
82622;PMS5003;72291;55.002;-1.592;2024-02-26T04:44:43;1;1;
82622;PMS5003;72291;55.002;-1.592;2024-02-26T04:47:09;0;0;
82622;PMS5003;72291;55.002;-1.592;2024-02-26T04:49:34;1;0;
82622;PMS5003;72291;55.002;-1.592;2024-02-26T04:51:59;1;0;
82622;PMS5003;72291;55.002;-1.592;2024-02-26T04:54:26;0;0;
82622;PMS5003;72291;55.002;-1.592;2024-02-26T04:56:49;0;0;
82622;PMS5003;72291;55.002;-1.592;2024-02-26T04:59:15;0;0;
82622;PMS5003;72291;55.002;-1.592;2024-02-26T05:01:40;0;0;
82622;PMS5003;72291;55.002;-1.592;2024-02-26T05:04:06;0;0;
82622;PMS5003;72291;55.002;-1.592;2024-02-26T05:06:30;0;0;
82622;PMS5003;72291;55.002;-1.592;2024-02-26T05:09:01;0;0;
82622;PMS5003;72291;55.002;-1.592;2024-02-26T05:11:21;1;1;
82622;PMS5003;72291;55.002;-1.592;2024-02-26T05:13:47;4;1;
82622;PMS5003;72291;55.002;-1.592;2024-02-26T05:16:12;4;3;
82622;PMS5003;72291;55.002;-1.592;2024-02-26T05:18:37;3;1;
82622;PMS5003;72291;55.002;-1.592;2024-02-26T05:21:02;1;1;
82622;PMS5003;72291;55.002;-1.592;2024-02-26T05:23:27;2;1;
82622;PMS5003;72291;55.002;-1.592;2024-02-26T05:25:52;2;1;
82622;PMS5003;72291;55.002;-1.592;2024-02-26T05:28:18;0;0;
82622;PMS5003;72291;55.002;-1.592;2024-02-26T05:33:10;2;1;
82622;PMS5003;72291;55.002;-1.592;2024-02-26T05:35:34;1;0;
82622;PMS5003;72291;55.002;-1.592;2024-02-26T05:37:59;0;0;
82622;PMS5003;72291;55.002;-1.592;2024-02-26T05:40:24;2;1;
82622;PMS5003;72291;55.002;-1.592;2024-02-26T05:42:49;2;0;
82622;PMS5003;72291;55.002;-1.592;2024-02-26T05:45:16;2;1;
82622;PMS5003;72291;55.002;-1.592;2024-02-26T05:50:05;1;1;
82622;PMS5003;72291;55.002;-1.592;2024-02-26T05:52:30;0;0;
82622;PMS5003;72291;55.002;-1.592;2024-02-26T05:54:55;2;1;
82622;PMS5003;72291;55.002;-1.592;2024-02-26T05:57:21;1;0;
82622;PMS5003;72291;55.002;-1.592;2024-02-26T05:59:46;1;0;
82622;PMS5003;72291;55.002;-1.592;2024-02-26T06:02:11;1;0;
82622;PMS5003;72291;55.002;-1.592;2024-02-26T06:04:36;2;0;
82622;PMS5003;72291;55.002;-1.592;2024-02-26T06:07:01;1;0;
82622;PMS5003;72291;55.002;-1.592;2024-02-26T06:09:28;0;0;
82622;PMS5003;72291;55.002;-1.592;2024-02-26T06:11:52;1;0;
82622;PMS5003;72291;55.002;-1.592;2024-02-26T06:14:17;1;0;
82622;PMS5003;72291;55.002;-1.592;2024-02-26T06:16:42;2;1;
82622;PMS5003;72291;55.002;-1.592;2024-02-26T06:19:08;1;0;
82622;PMS5003;72291;55.002;-1.592;2024-02-26T06:21:33;0;0;
82622;PMS5003;72291;55.002;-1.592;2024-02-26T06:23:58;1;1;
82622;PMS5003;72291;55.002;-1.592;2024-02-26T06:26:23;1;1;
82622;PMS5003;72291;55.002;-1.592;2024-02-26T06:28:48;3;0;
82622;PMS5003;72291;55.002;-1.592;2024-02-26T06:31:14;0;0;
82622;PMS5003;72291;55.002;-1.592;2024-02-26T06:33:39;2;0;
82622;PMS5003;72291;55.002;-1.592;2024-02-26T06:36:05;1;0;
82622;PMS5003;72291;55.002;-1.592;2024-02-26T06:38:29;1;0;
82622;PMS5003;72291;55.002;-1.592;2024-02-26T06:40:54;1;0;
82622;PMS5003;72291;55.002;-1.592;2024-02-26T06:43:20;1;0;
82622;PMS5003;72291;55.002;-1.592;2024-02-26T06:45:45;1;0;
82622;PMS5003;72291;55.002;-1.592;2024-02-26T06:48:10;0;0;
82622;PMS5003;72291;55.002;-1.592;2024-02-26T06:53:01;2;2;
82622;PMS5003;72291;55.002;-1.592;2024-02-26T06:55:26;1;1;
82622;PMS5003;72291;55.002;-1.592;2024-02-26T06:57:52;0;0;
82622;PMS5003;72291;55.002;-1.592;2024-02-26T07:00:17;0;0;
82622;PMS5003;72291;55.002;-1.592;2024-02-26T07:02:42;2;2;
82622;PMS5003;72291;55.002;-1.592;2024-02-26T07:05:07;1;1;
82622;PMS5003;72291;55.002;-1.592;2024-02-26T07:07:33;0;0;
82622;PMS5003;72291;55.002;-1.592;2024-02-26T07:09:59;4;2;
82622;PMS5003;72291;55.002;-1.592;2024-02-26T07:12:24;1;0;
82622;PMS5003;72291;55.002;-1.592;2024-02-26T07:14:49;0;0;
82622;PMS5003;72291;55.002;-1.592;2024-02-26T07:17:14;2;1;
82622;PMS5003;72291;55.002;-1.592;2024-02-26T07:19:39;3;0;
82622;PMS5003;72291;55.002;-1.592;2024-02-26T07:22:06;1;0;
82622;PMS5003;72291;55.002;-1.592;2024-02-26T07:26:56;1;0;
82622;PMS5003;72291;55.002;-1.592;2024-02-26T07:29:21;1;0;
82622;PMS5003;72291;55.002;-1.592;2024-02-26T07:31:46;1;0;
82622;PMS5003;72291;55.002;-1.592;2024-02-26T07:34:12;2;0;
82622;PMS5003;72291;55.002;-1.592;2024-02-26T07:36:36;2;0;
82622;PMS5003;72291;55.002;-1.592;2024-02-26T07:48:48;0;0;
82622;PMS5003;72291;55.002;-1.592;2024-02-26T07:51:08;1;0;
82622;PMS5003;72291;55.002;-1.592;2024-02-26T07:53:33;1;0;
82622;PMS5003;72291;55.002;-1.592;2024-02-26T07:55:58;0;0;
82622;PMS5003;72291;55.002;-1.592;2024-02-26T07:58:23;1;1;
82622;PMS5003;72291;55.002;-1.592;2024-02-26T08:00:49;2;0;
82622;PMS5003;72291;55.002;-1.592;2024-02-26T08:03:14;0;0;
82622;PMS5003;72291;55.002;-1.592;2024-02-26T08:05:39;0;0;
82622;PMS5003;72291;55.002;-1.592;2024-02-26T08:08:04;2;1;
82622;PMS5003;72291;55.002;-1.592;2024-02-26T08:12:56;0;0;
82622;PMS5003;72291;55.002;-1.592;2024-02-26T08:15:20;1;1;
82622;PMS5003;72291;55.002;-1.592;2024-02-26T08:17:45;0;0;
82622;PMS5003;72291;55.002;-1.592;2024-02-26T08:20:11;2;0;
82622;PMS5003;72291;55.002;-1.592;2024-02-26T08:22:35;0;0;
82622;PMS5003;72291;55.002;-1.592;2024-02-26T08:25:01;0;0;
82622;PMS5003;72291;55.002;-1.592;2024-02-26T08:27:25;1;0;
82622;PMS5003;72291;55.002;-1.592;2024-02-26T08:29:51;0;0;
82622;PMS5003;72291;55.002;-1.592;2024-02-26T08:32:16;2;1;
82622;PMS5003;72291;55.002;-1.592;2024-02-26T08:34:42;1;0;
82622;PMS5003;72291;55.002;-1.592;2024-02-26T08:37:07;1;0;
82622;PMS5003;72291;55.002;-1.592;2024-02-26T08:39:32;1;0;
82622;PMS5003;72291;55.002;-1.592;2024-02-26T08:41:57;0;0;
82622;PMS5003;72291;55.002;-1.592;2024-02-26T08:44:22;1;0;
82622;PMS5003;72291;55.002;-1.592;2024-02-26T08:46:48;2;0;
82622;PMS5003;72291;55.002;-1.592;2024-02-26T08:49:14;3;2;
82622;PMS5003;72291;55.002;-1.592;2024-02-26T08:51:41;0;0;
82622;PMS5003;72291;55.002;-1.592;2024-02-26T08:54:04;0;0;
82622;PMS5003;72291;55.002;-1.592;2024-02-26T08:56:29;1;0;
82622;PMS5003;72291;55.002;-1.592;2024-02-26T08:58:55;1;0;
82622;PMS5003;72291;55.002;-1.592;2024-02-26T09:01:21;0;0;
82622;PMS5003;72291;55.002;-1.592;2024-02-26T09:03:46;0;0;
82622;PMS5003;72291;55.002;-1.592;2024-02-26T09:06:15;1;0;
82622;PMS5003;72291;55.002;-1.592;2024-02-26T09:08:38;1;0;
82622;PMS5003;72291;55.002;-1.592;2024-02-26T09:11:02;0;0;
82622;PMS5003;72291;55.002;-1.592;2024-02-26T09:13:27;0;0;
82622;PMS5003;72291;55.002;-1.592;2024-02-26T09:15:52;0;0;
82622;PMS5003;72291;55.002;-1.592;2024-02-26T09:18:17;1;1;
82622;PMS5003;72291;55.002;-1.592;2024-02-26T09:20:43;0;0;
82622;PMS5003;72291;55.002;-1.592;2024-02-26T09:23:08;0;0;
82622;PMS5003;72291;55.002;-1.592;2024-02-26T09:25:35;0;0;
82622;PMS5003;72291;55.002;-1.592;2024-02-26T09:27:58;0;0;
82622;PMS5003;72291;55.002;-1.592;2024-02-26T09:30:24;0;0;
82622;PMS5003;72291;55.002;-1.592;2024-02-26T09:32:49;0;0;
82622;PMS5003;72291;55.002;-1.592;2024-02-26T09:35:14;0;0;
82622;PMS5003;72291;55.002;-1.592;2024-02-26T09:37:40;0;0;
82622;PMS5003;72291;55.002;-1.592;2024-02-26T09:40:05;0;0;
82622;PMS5003;72291;55.002;-1.592;2024-02-26T09:42:30;1;1;
82622;PMS5003;72291;55.002;-1.592;2024-02-26T09:44:56;2;1;
82622;PMS5003;72291;55.002;-1.592;2024-02-26T09:47:21;1;0;
82622;PMS5003;72291;55.002;-1.592;2024-02-26T09:49:47;0;0;
82622;PMS5003;72291;55.002;-1.592;2024-02-26T09:52:11;0;0;
82622;PMS5003;72291;55.002;-1.592;2024-02-26T09:54:36;0;0;
82622;PMS5003;72291;55.002;-1.592;2024-02-26T09:57:02;0;0;
82622;PMS5003;72291;55.002;-1.592;2024-02-26T09:59:27;0;0;
82622;PMS5003;72291;55.002;-1.592;2024-02-26T10:01:52;5;0;
82622;PMS5003;72291;55.002;-1.592;2024-02-26T10:04:21;0;0;
82622;PMS5003;72291;55.002;-1.592;2024-02-26T10:06:42;0;0;
82622;PMS5003;72291;55.002;-1.592;2024-02-26T10:09:07;0;0;
82622;PMS5003;72291;55.002;-1.592;2024-02-26T10:11:33;0;0;
82622;PMS5003;72291;55.002;-1.592;2024-02-26T10:13:59;1;1;
82622;PMS5003;72291;55.002;-1.592;2024-02-26T10:16:23;1;0;
82622;PMS5003;72291;55.002;-1.592;2024-02-26T10:18:48;2;2;
82622;PMS5003;72291;55.002;-1.592;2024-02-26T10:21:13;0;0;
82622;PMS5003;72291;55.002;-1.592;2024-02-26T10:23:38;1;0;
82622;PMS5003;72291;55.002;-1.592;2024-02-26T10:26:10;0;0;
82622;PMS5003;72291;55.002;-1.592;2024-02-26T10:28:29;2;0;
82622;PMS5003;72291;55.002;-1.592;2024-02-26T10:30:55;0;0;
82622;PMS5003;72291;55.002;-1.592;2024-02-26T10:33:19;0;0;
82622;PMS5003;72291;55.002;-1.592;2024-02-26T10:35:45;0;0;
82622;PMS5003;72291;55.002;-1.592;2024-02-26T10:38:10;0;0;
82622;PMS5003;72291;55.002;-1.592;2024-02-26T10:40:34;2;0;
82622;PMS5003;72291;55.002;-1.592;2024-02-26T10:43:00;3;2;
82622;PMS5003;72291;55.002;-1.592;2024-02-26T10:45:25;0;0;
82622;PMS5003;72291;55.002;-1.592;2024-02-26T10:47:50;1;0;
82622;PMS5003;72291;55.002;-1.592;2024-02-26T10:50:16;2;0;
82622;PMS5003;72291;55.002;-1.592;2024-02-26T10:52:40;0;0;
82622;PMS5003;72291;55.002;-1.592;2024-02-26T10:55:06;1;0;
82622;PMS5003;72291;55.002;-1.592;2024-02-26T10:57:33;2;1;
82622;PMS5003;72291;55.002;-1.592;2024-02-26T10:59:56;1;0;
82622;PMS5003;72291;55.002;-1.592;2024-02-26T11:02:22;2;1;
82622;PMS5003;72291;55.002;-1.592;2024-02-26T11:04:46;0;0;
82622;PMS5003;72291;55.002;-1.592;2024-02-26T11:07:11;1;1;
82622;PMS5003;72291;55.002;-1.592;2024-02-26T11:09:36;1;1;
82622;PMS5003;72291;55.002;-1.592;2024-02-26T11:12:02;1;1;
82622;PMS5003;72291;55.002;-1.592;2024-02-26T11:14:29;1;1;
82622;PMS5003;72291;55.002;-1.592;2024-02-26T11:16:52;1;0;
82622;PMS5003;72291;55.002;-1.592;2024-02-26T11:19:17;2;1;
82622;PMS5003;72291;55.002;-1.592;2024-02-26T11:21:42;0;0;
82622;PMS5003;72291;55.002;-1.592;2024-02-26T11:24:08;2;1;
82622;PMS5003;72291;55.002;-1.592;2024-02-26T11:26:33;1;0;
82622;PMS5003;72291;55.002;-1.592;2024-02-26T11:28:58;0;0;
82622;PMS5003;72291;55.002;-1.592;2024-02-26T11:31:24;0;0;
82622;PMS5003;72291;55.002;-1.592;2024-02-26T11:33:49;0;0;
82622;PMS5003;72291;55.002;-1.592;2024-02-26T11:36:14;0;0;
82622;PMS5003;72291;55.002;-1.592;2024-02-26T11:38:40;2;1;
82622;PMS5003;72291;55.002;-1.592;2024-02-26T11:45:55;0;0;
82622;PMS5003;72291;55.002;-1.592;2024-02-26T11:48:21;1;0;
82622;PMS5003;72291;55.002;-1.592;2024-02-26T11:50:47;1;1;
82622;PMS5003;72291;55.002;-1.592;2024-02-26T11:55:36;0;0;
82622;PMS5003;72291;55.002;-1.592;2024-02-26T11:58:01;3;1;
82622;PMS5003;72291;55.002;-1.592;2024-02-26T12:00:26;0;0;
82622;PMS5003;72291;55.002;-1.592;2024-02-26T12:02:52;3;2;
82622;PMS5003;72291;55.002;-1.592;2024-02-26T12:05:18;1;0;
82622;PMS5003;72291;55.002;-1.592;2024-02-26T12:07:44;2;2;
82622;PMS5003;72291;55.002;-1.592;2024-02-26T12:10:20;3;1;
82622;PMS5003;72291;55.002;-1.592;2024-02-26T12:12:32;1;1;
82622;PMS5003;72291;55.002;-1.592;2024-02-26T12:14:59;0;0;
82622;PMS5003;72291;55.002;-1.592;2024-02-26T12:17:24;0;0;
82622;PMS5003;72291;55.002;-1.592;2024-02-26T12:19:48;0;0;
82622;PMS5003;72291;55.002;-1.592;2024-02-26T12:22:13;1;1;
82622;PMS5003;72291;55.002;-1.592;2024-02-26T12:24:38;0;0;
82622;PMS5003;72291;55.002;-1.592;2024-02-26T12:27:04;0;0;
82622;PMS5003;72291;55.002;-1.592;2024-02-26T12:29:29;2;1;
82622;PMS5003;72291;55.002;-1.592;2024-02-26T12:31:54;1;0;
82622;PMS5003;72291;55.002;-1.592;2024-02-26T12:34:19;1;1;
82622;PMS5003;72291;55.002;-1.592;2024-02-26T12:36:44;2;1;
82622;PMS5003;72291;55.002;-1.592;2024-02-26T12:39:12;1;0;
82622;PMS5003;72291;55.002;-1.592;2024-02-26T12:44:00;1;1;
82622;PMS5003;72291;55.002;-1.592;2024-02-26T12:46:25;2;0;
82622;PMS5003;72291;55.002;-1.592;2024-02-26T12:48:50;1;0;
82622;PMS5003;72291;55.002;-1.592;2024-02-26T12:51:16;1;1;
82622;PMS5003;72291;55.002;-1.592;2024-02-26T12:53:41;2;1;
82622;PMS5003;72291;55.002;-1.592;2024-02-26T12:56:07;0;0;
82622;PMS5003;72291;55.002;-1.592;2024-02-26T12:58:32;2;2;
82622;PMS5003;72291;55.002;-1.592;2024-02-26T13:00:57;4;2;
82622;PMS5003;72291;55.002;-1.592;2024-02-26T13:03:23;1;1;
82622;PMS5003;72291;55.002;-1.592;2024-02-26T13:05:48;2;0;
82622;PMS5003;72291;55.002;-1.592;2024-02-26T13:08:17;3;2;
82622;PMS5003;72291;55.002;-1.592;2024-02-26T13:10:38;1;1;
82622;PMS5003;72291;55.002;-1.592;2024-02-26T13:13:03;6;2;
82622;PMS5003;72291;55.002;-1.592;2024-02-26T13:15:28;3;0;
82622;PMS5003;72291;55.002;-1.592;2024-02-26T13:17:53;1;1;
82622;PMS5003;72291;55.002;-1.592;2024-02-26T13:20:25;0;0;
82622;PMS5003;72291;55.002;-1.592;2024-02-26T13:22:44;2;1;
82622;PMS5003;72291;55.002;-1.592;2024-02-26T13:25:09;0;0;
82622;PMS5003;72291;55.002;-1.592;2024-02-26T13:27:35;1;0;
82622;PMS5003;72291;55.002;-1.592;2024-02-26T13:30:03;0;0;
82622;PMS5003;72291;55.002;-1.592;2024-02-26T13:32:25;2;1;
82622;PMS5003;72291;55.002;-1.592;2024-02-26T13:34:50;0;0;
82622;PMS5003;72291;55.002;-1.592;2024-02-26T13:37:15;2;1;
82622;PMS5003;72291;55.002;-1.592;2024-02-26T13:39:40;1;0;
82622;PMS5003;72291;55.002;-1.592;2024-02-26T13:42:05;1;1;
82622;PMS5003;72291;55.002;-1.592;2024-02-26T13:44:30;3;1;
82622;PMS5003;72291;55.002;-1.592;2024-02-26T13:46:56;1;1;
82622;PMS5003;72291;55.002;-1.592;2024-02-26T13:49:27;0;0;
82622;PMS5003;72291;55.002;-1.592;2024-02-26T13:51:48;2;1;
82622;PMS5003;72291;55.002;-1.592;2024-02-26T13:54:12;0;0;
82622;PMS5003;72291;55.002;-1.592;2024-02-26T13:56:38;0;0;
82622;PMS5003;72291;55.002;-1.592;2024-02-26T13:59:03;1;1;
82622;PMS5003;72291;55.002;-1.592;2024-02-26T14:01:28;2;1;
82622;PMS5003;72291;55.002;-1.592;2024-02-26T14:03:53;2;0;
82622;PMS5003;72291;55.002;-1.592;2024-02-26T14:06:18;1;0;
82622;PMS5003;72291;55.002;-1.592;2024-02-26T14:08:43;2;0;
82622;PMS5003;72291;55.002;-1.592;2024-02-26T14:11:09;2;1;
82622;PMS5003;72291;55.002;-1.592;2024-02-26T14:13:34;1;0;
82622;PMS5003;72291;55.002;-1.592;2024-02-26T14:16:01;4;3;
82622;PMS5003;72291;55.002;-1.592;2024-02-26T14:18:24;6;5;
82622;PMS5003;72291;55.002;-1.592;2024-02-26T14:23:15;3;1;
82622;PMS5003;72291;55.002;-1.592;2024-02-26T14:25:40;3;1;
82622;PMS5003;72291;55.002;-1.592;2024-02-26T14:28:06;1;0;
82622;PMS5003;72291;55.002;-1.592;2024-02-26T14:30:30;3;1;
82622;PMS5003;72291;55.002;-1.592;2024-02-26T14:32:56;2;1;
82622;PMS5003;72291;55.002;-1.592;2024-02-26T14:35:25;6;2;
82622;PMS5003;72291;55.002;-1.592;2024-02-26T14:37:46;2;1;
82622;PMS5003;72291;55.002;-1.592;2024-02-26T14:40:25;2;1;
82622;PMS5003;72291;55.002;-1.592;2024-02-26T14:42:36;3;2;
82622;PMS5003;72291;55.002;-1.592;2024-02-26T14:45:08;0;0;
82622;PMS5003;72291;55.002;-1.592;2024-02-26T14:47:27;2;2;
82622;PMS5003;72291;55.002;-1.592;2024-02-26T14:49:53;2;2;
82622;PMS5003;72291;55.002;-1.592;2024-02-26T14:52:19;4;4;
82622;PMS5003;72291;55.002;-1.592;2024-02-26T14:54:43;2;1;
82622;PMS5003;72291;55.002;-1.592;2024-02-26T14:59:33;1;1;
82622;PMS5003;72291;55.002;-1.592;2024-02-26T15:01:59;1;1;
82622;PMS5003;72291;55.002;-1.592;2024-02-26T15:04:24;3;1;
82622;PMS5003;72291;55.002;-1.592;2024-02-26T15:06:49;1;1;
82622;PMS5003;72291;55.002;-1.592;2024-02-26T15:09:15;3;1;
82622;PMS5003;72291;55.002;-1.592;2024-02-26T15:11:39;1;1;
82622;PMS5003;72291;55.002;-1.592;2024-02-26T15:14:04;2;2;
82622;PMS5003;72291;55.002;-1.592;2024-02-26T15:16:31;1;0;
82622;PMS5003;72291;55.002;-1.592;2024-02-26T15:18:55;6;6;
82622;PMS5003;72291;55.002;-1.592;2024-02-26T15:21:20;1;0;
82622;PMS5003;72291;55.002;-1.592;2024-02-26T15:23:45;3;2;
82622;PMS5003;72291;55.002;-1.592;2024-02-26T15:26:11;4;3;
82622;PMS5003;72291;55.002;-1.592;2024-02-26T15:28:37;3;1;
82622;PMS5003;72291;55.002;-1.592;2024-02-26T15:31:01;3;1;
82622;PMS5003;72291;55.002;-1.592;2024-02-26T15:33:27;4;1;
82622;PMS5003;72291;55.002;-1.592;2024-02-26T15:38:17;6;4;
82622;PMS5003;72291;55.002;-1.592;2024-02-26T15:40:42;3;2;
82622;PMS5003;72291;55.002;-1.592;2024-02-26T15:43:19;3;3;
82622;PMS5003;72291;55.002;-1.592;2024-02-26T15:45:35;4;4;
82622;PMS5003;72291;55.002;-1.592;2024-02-26T15:47:58;4;2;
82622;PMS5003;72291;55.002;-1.592;2024-02-26T15:50:23;5;2;
82622;PMS5003;72291;55.002;-1.592;2024-02-26T15:52:50;0;0;
82622;PMS5003;72291;55.002;-1.592;2024-02-26T15:55:14;3;2;
82622;PMS5003;72291;55.002;-1.592;2024-02-26T15:57:40;2;0;
82622;PMS5003;72291;55.002;-1.592;2024-02-26T16:00:05;3;1;
82622;PMS5003;72291;55.002;-1.592;2024-02-26T16:02:29;5;2;
82622;PMS5003;72291;55.002;-1.592;2024-02-26T16:04:56;5;1;
82622;PMS5003;72291;55.002;-1.592;2024-02-26T16:07:21;1;1;
82622;PMS5003;72291;55.002;-1.592;2024-02-26T16:12:11;7;4;
82622;PMS5003;72291;55.002;-1.592;2024-02-26T16:17:05;2;1;
82622;PMS5003;72291;55.002;-1.592;2024-02-26T16:19:26;7;6;
82622;PMS5003;72291;55.002;-1.592;2024-02-26T16:21:52;5;5;
82622;PMS5003;72291;55.002;-1.592;2024-02-26T16:24:17;4;3;
82622;PMS5003;72291;55.002;-1.592;2024-02-26T16:26:42;3;1;
82622;PMS5003;72291;55.002;-1.592;2024-02-26T16:29:09;5;5;
82622;PMS5003;72291;55.002;-1.592;2024-02-26T16:36:24;9;8;
82622;PMS5003;72291;55.002;-1.592;2024-02-26T16:38:49;2;2;
82622;PMS5003;72291;55.002;-1.592;2024-02-26T16:41:16;7;7;
82622;PMS5003;72291;55.002;-1.592;2024-02-26T16:43:40;8;7;
82622;PMS5003;72291;55.002;-1.592;2024-02-26T16:46:05;6;5;
82622;PMS5003;72291;55.002;-1.592;2024-02-26T16:48:33;2;1;
82622;PMS5003;72291;55.002;-1.592;2024-02-26T16:50:55;2;2;
82622;PMS5003;72291;55.002;-1.592;2024-02-26T16:53:21;5;2;
82622;PMS5003;72291;55.002;-1.592;2024-02-26T16:55:45;1;1;
82622;PMS5003;72291;55.002;-1.592;2024-02-26T16:58:11;3;0;
82622;PMS5003;72291;55.002;-1.592;2024-02-26T17:00:36;2;1;
82622;PMS5003;72291;55.002;-1.592;2024-02-26T17:03:01;2;1;
82622;PMS5003;72291;55.002;-1.592;2024-02-26T17:05:27;3;2;
82622;PMS5003;72291;55.002;-1.592;2024-02-26T17:07:51;1;1;
82622;PMS5003;72291;55.002;-1.592;2024-02-26T17:10:17;2;1;
82622;PMS5003;72291;55.002;-1.592;2024-02-26T17:12:42;2;0;